createdAt,value
2023-02-20T00:08:00.533Z,10926.64151
2023-02-20T00:23:02.735Z,10356.81667
2023-02-20T00:38:04.980Z,9964.78929
2023-02-20T00:53:07.242Z,8802.48885
2023-02-20T01:08:09.621Z,7806.89705
2023-02-20T01:23:11.825Z,5847.108
2023-02-20T01:38:14.110Z,5026.64351
2023-02-20T01:53:16.482Z,3971.93032
2023-02-20T02:08:18.926Z,3339.23353
2023-02-20T02:23:21.219Z,2726.39744
2023-02-20T02:38:23.584Z,2517.79411
2023-02-20T02:53:25.970Z,1834.08993
2023-02-20T03:08:28.232Z,1701.74433
2023-02-20T03:23:30.441Z,1709.97028
2023-02-20T03:38:32.736Z,1345.05754
2023-02-20T03:53:35.319Z,1170.38926
2023-02-20T04:08:37.544Z,1115.9311
2023-02-20T04:23:39.813Z,1097.7507
2023-02-20T04:38:42.048Z,1077.68519
2023-02-20T04:53:44.289Z,969.17858
2023-02-20T05:08:47.235Z,1058.34007
2023-02-20T05:23:50.596Z,1014.33742
2023-02-20T05:38:52.754Z,1123.01638
2023-02-20T05:53:54.972Z,1123.90837
2023-02-20T06:08:57.196Z,1058.34007
2023-02-20T06:23:59.726Z,1107.19925
2023-02-20T06:39:02.061Z,1090.97968
2023-02-20T06:54:04.304Z,1136.54669
2023-02-20T07:09:06.656Z,1157.93831
2023-02-20T07:24:09.085Z,1207.33839
2023-02-20T07:39:11.309Z,1261.14133
2023-02-20T07:54:15.681Z,1300.55198
2023-02-20T08:09:20.103Z,1266.78654
2023-02-20T08:24:24.782Z,1375.12199
2023-02-20T08:39:29.207Z,1287.53463
2023-02-20T08:54:33.656Z,1243.41
2023-02-20T09:09:38.038Z,1221.93488
2023-02-20T09:24:42.676Z,1182.12248
2023-02-20T09:39:47.124Z,1150.40701
2023-02-20T09:54:51.678Z,1162.69566
2023-02-20T10:09:56.312Z,1135.63453
2023-02-20T10:25:00.630Z,1077.68519
2023-02-20T10:40:04.952Z,1062.31281
2023-02-20T10:55:09.569Z,1046.59813
2023-02-20T11:10:14.074Z,1009.27297
2023-02-20T11:25:18.506Z,982.63939
2023-02-20T11:40:23.072Z,975.19002
2023-02-20T11:55:27.971Z,1029.09141
2023-02-20T12:10:32.415Z,1015.06506
2023-02-20T12:25:36.918Z,981.27651
2023-02-20T12:40:41.332Z,959.97336
2023-02-20T12:55:45.907Z,939.57553
2023-02-20T13:10:50.358Z,956.08158
2023-02-20T13:25:54.756Z,993.68028
2023-02-20T13:40:59.156Z,947.75669
2023-02-20T13:56:03.567Z,967.85276
2023-02-20T14:11:08.000Z,869.69933
2023-02-20T14:26:12.429Z,759.52814
2023-02-20T14:41:16.879Z,761.16241
2023-02-20T14:56:21.345Z,703.9778
2023-02-20T15:11:25.775Z,719.74919
2023-02-20T15:26:30.134Z,796.28637
2023-02-20T15:41:34.543Z,816.03279
2023-02-20T15:56:39.158Z,852.41014
2023-02-20T16:11:41.433Z,833.33383
2023-02-20T16:26:44.228Z,877.79206
2023-02-20T16:41:46.525Z,825.55476
2023-02-20T16:56:48.842Z,976.53604
2023-02-20T17:11:51.174Z,1142.05054
2023-02-20T17:26:53.568Z,1160.78803
2023-02-20T17:41:55.817Z,1232.5789
2023-02-20T17:56:58.047Z,1400.99061
2023-02-20T18:12:00.318Z,1671.58939
2023-02-20T18:27:02.638Z,1799.11048
2023-02-20T18:42:04.853Z,1922.55485
2023-02-20T18:57:07.098Z,2108.79335
2023-02-20T19:12:09.359Z,2221.35058
2023-02-20T19:27:11.604Z,2473.77674
2023-02-20T19:42:13.819Z,2515.55607
2023-02-20T19:57:16.079Z,2637.46557
2023-02-20T20:12:18.358Z,2652.29668
2023-02-20T20:27:20.662Z,2642.39081
2023-02-20T20:42:22.977Z,2378.15177
2023-02-20T20:57:25.351Z,2258.57992
2023-02-20T21:12:27.585Z,2180.27785
2023-02-20T21:27:29.990Z,2224.84327
2023-02-20T21:42:32.228Z,2153.72958
2023-02-20T21:57:34.415Z,2050.72514
2023-02-20T22:12:36.653Z,2050.72514
2023-02-20T22:27:38.871Z,1835.27936
2023-02-20T22:42:41.184Z,2465.15731
2023-02-20T22:57:43.434Z,3146.19281
2023-02-20T23:12:45.835Z,3447.01632
2023-02-20T23:27:48.110Z,3487.36956
2023-02-20T23:42:50.314Z,3758.30063
2023-02-20T23:57:52.550Z,4180.2073
